Baghdad, Iraq

5:04 PM AST on August 24, 2016 (GMT +0300)
Pedro61 | | Change Station

Elev 20 ft 33.24 °N, 44.33 °E | Updated 3 minutes ago

Clear
Clear
115.9 °F
Feels Like 111 °F
N
4.5
Wind Variable Wind from NW
Gusts 6.0 mph

Today
High -- | Low -- °F
--% Chance of Precip.
Yesterday
High -- | Low -- °F
Precip. -- in
Pressure 29.50 in
Visibility -9999.0 miles
Clouds
Heat Index 111 °F
Dew Point 46 °F
Humidity 10%
Rainfall 0.00 in
Snow Depth Not available.
5:32 AM 6:38 PM
Waning Gibbous, 57% visible
METAR ORBI 241400Z 30011KT 270V330 CAVOK 46/06 Q0999 NOSIG
Pressure 29.50 in
Visibility -9999.0 miles
Clouds
Heat Index 111 °F
Dew Point 46 °F
Humidity 10%
Rainfall 0.00 in
Snow Depth Not available.
5:32 AM 6:38 PM
Waning Gibbous, 57% visible
METAR ORBI 241400Z 30011KT 270V330 CAVOK 46/06 Q0999 NOSIG

10-Day Weather Forecast

No radar image for this location.
×

Almanac

Astronomy

Aug. 24, 2016 Rise Set
Actual Time
Civil Twilight
Nautical Twilight
Astronomical Twilight
Moon
Length of Visible Light
Length of Day
Tomorrow will be .
, % of the Moon is Illuminated

Today's Extremes

Country Highs Country Lows

Community

WunderPhotos

Upload Photos

1,934,605 photos uploaded!

WunderBlog® & News

Nearby

Air Quality

  Air Quality AQ Index Pollutant
Not available.

Snow Depth

Station Depth Elevation

Earthquake Activity

City Distance Mag. Time & Date
Minimum magnitude displayed is 2.5.

Coastal Water Temperatures

Place Temperature

Stations

Nearby Weather Stations

Station Location Temp. Windchill Dew Point Humidity Wind Precip. Elev Updated Type